createdAt,value
2023-03-11T00:00:29.362Z,98684.56
2023-03-11T00:01:11.518Z,98684.56
2023-03-11T00:01:53.203Z,98715.03
2023-03-11T00:02:34.982Z,98707.53
2023-03-11T00:03:19.791Z,98727.84
2023-03-11T00:04:01.758Z,98704.44
2023-03-11T00:04:44.192Z,98698.22
2023-03-11T00:05:31.712Z,98724.91
2023-03-11T00:06:13.793Z,98703.47
2023-03-11T00:06:55.588Z,98708.22
2023-03-11T00:07:39.810Z,98712.75
2023-03-11T00:08:25.581Z,98720.16
2023-03-11T00:09:07.364Z,98721.28
2023-03-11T00:09:49.289Z,98712.75
2023-03-11T00:10:42.485Z,98714.09
2023-03-11T00:11:25.129Z,98717.34
2023-03-11T00:12:07.193Z,98716.81
2023-03-11T00:12:48.912Z,98736.31
2023-03-11T00:13:31.028Z,98715.69
2023-03-11T00:14:12.785Z,98714.88
2023-03-11T00:14:54.670Z,98710.78
2023-03-11T00:15:37.273Z,98736.78
2023-03-11T00:16:19.010Z,98731.22
2023-03-11T00:17:00.800Z,98699.63
2023-03-11T00:17:42.830Z,98731.38
2023-03-11T00:18:27.151Z,98742.00
2023-03-11T00:19:10.667Z,98741.19
2023-03-11T00:19:52.371Z,98729.69
2023-03-11T00:20:37.732Z,98719.59
2023-03-11T00:21:20.312Z,98741.97
2023-03-11T00:22:03.097Z,98730.50
2023-03-11T00:22:44.913Z,98756.03
2023-03-11T00:23:28.327Z,98765.47
2023-03-11T00:24:10.083Z,98743.75
2023-03-11T00:24:51.786Z,98738.03
2023-03-11T00:25:35.466Z,98754.06
2023-03-11T00:26:17.278Z,98742.63
2023-03-11T00:26:59.070Z,98770.56
2023-03-11T00:27:40.770Z,98760.13
2023-03-11T00:28:26.032Z,98752.44
2023-03-11T00:29:07.790Z,98749.03
2023-03-11T00:29:49.683Z,98729.00
2023-03-11T00:30:31.828Z,98742.59
2023-03-11T00:31:14.482Z,98754.06
2023-03-11T00:31:56.264Z,98756.00
2023-03-11T00:32:38.102Z,98750.22
2023-03-11T00:33:19.970Z,98746.66
2023-03-11T00:34:01.768Z,98754.78
2023-03-11T00:34:43.526Z,98796.34
2023-03-11T00:35:30.817Z,98778.72
2023-03-11T00:36:28.921Z,98782.16
2023-03-11T00:37:10.642Z,98783.94
2023-03-11T00:37:55.027Z,98781.00
2023-03-11T00:38:36.716Z,98792.09
2023-03-11T00:39:18.490Z,98783.25
2023-03-11T00:40:00.582Z,98793.41
2023-03-11T00:40:43.667Z,98789.81
2023-03-11T00:41:25.593Z,98801.91
2023-03-11T00:42:07.845Z,98783.56
2023-03-11T00:42:49.622Z,98790.72
2023-03-11T00:43:31.330Z,98780.63
2023-03-11T00:44:13.032Z,98785.72
2023-03-11T00:44:54.676Z,98780.63
2023-03-11T00:45:36.732Z,98798.44
2023-03-11T00:46:18.705Z,98805.94
2023-03-11T00:47:00.603Z,98797.56
2023-03-11T00:47:42.730Z,98800.56
2023-03-11T00:48:24.520Z,98804.00
2023-03-11T00:49:06.406Z,98795.31
2023-03-11T00:49:48.135Z,98789.38
2023-03-11T00:50:33.618Z,98777.91
2023-03-11T00:51:15.814Z,98786.75
2023-03-11T00:51:57.496Z,98781.22
2023-03-11T00:52:39.503Z,98764.00
2023-03-11T00:53:21.242Z,98773.66
2023-03-11T00:54:03.271Z,98780.97
2023-03-11T00:54:46.243Z,98810.47
2023-03-11T00:55:31.716Z,98803.59
2023-03-11T00:56:16.260Z,98778.06
2023-03-11T00:56:58.777Z,98769.25
2023-03-11T00:57:40.730Z,98770.69
2023-03-11T00:58:27.225Z,98784.75
2023-03-11T00:59:10.665Z,98806.34
2023-03-11T00:59:53.404Z,98802.78
2023-03-11T01:00:35.658Z,98766.78
2023-03-11T01:01:20.017Z,98762.69
2023-03-11T01:02:01.915Z,98777.06
2023-03-11T01:02:44.016Z,98789.44
2023-03-11T01:03:25.754Z,98795.66
2023-03-11T01:04:07.505Z,98797.13
2023-03-11T01:04:54.368Z,98783.13
2023-03-11T01:05:36.304Z,98749.44
2023-03-11T01:06:18.028Z,98769.06
2023-03-11T01:07:00.674Z,98765.06
2023-03-11T01:07:42.446Z,98800.56
2023-03-11T01:08:24.165Z,98781.03
2023-03-11T01:09:06.158Z,98782.28
2023-03-11T01:09:47.902Z,98763.75
2023-03-11T01:10:30.942Z,98773.75
2023-03-11T01:11:12.778Z,98787.28
2023-03-11T01:11:54.436Z,98809.84
2023-03-11T01:12:36.286Z,98800.97
2023-03-11T01:13:18.013Z,98789.41
2023-03-11T01:13:59.787Z,98777.63
2023-03-11T01:14:41.504Z,98767.63
2023-03-11T01:15:31.342Z,98790.00
2023-03-11T01:16:13.987Z,98819.94
2023-03-11T01:16:56.842Z,98780.41
2023-03-11T01:17:38.588Z,98798.66
2023-03-11T01:18:20.655Z,98765.94
2023-03-11T01:19:02.389Z,98778.16
2023-03-11T01:19:45.179Z,98798.78
2023-03-11T01:20:27.446Z,98804.81
2023-03-11T01:21:09.261Z,98808.44
2023-03-11T01:21:50.982Z,98773.47
2023-03-11T01:22:32.739Z,98787.25
2023-03-11T01:23:16.465Z,98782.47
2023-03-11T01:23:58.225Z,98787.19
2023-03-11T01:24:40.030Z,98779.28
2023-03-11T01:25:23.422Z,98788.03
2023-03-11T01:26:05.410Z,98763.63
2023-03-11T01:26:47.296Z,98773.25
2023-03-11T01:27:29.045Z,98787.41
2023-03-11T01:28:11.152Z,98793.31
2023-03-11T01:28:52.901Z,98778.28
2023-03-11T01:29:34.774Z,98764.53
2023-03-11T01:30:23.594Z,98769.75
2023-03-11T01:31:05.447Z,98789.31
2023-03-11T01:31:47.358Z,98817.78
2023-03-11T01:32:29.106Z,98805.25
2023-03-11T01:33:16.022Z,98804.44
2023-03-11T01:33:57.785Z,98786.34
2023-03-11T01:34:41.097Z,98804.00
2023-03-11T01:35:26.234Z,98810.13
2023-03-11T01:36:09.055Z,98804.38
2023-03-11T01:36:50.942Z,98800.34
2023-03-11T01:37:34.407Z,98808.16
2023-03-11T01:38:17.261Z,98779.78
2023-03-11T01:38:59.067Z,98782.44
2023-03-11T01:39:40.870Z,98796.91
2023-03-11T01:40:36.507Z,98796.75
2023-03-11T01:41:21.841Z,98806.53
2023-03-11T01:42:03.875Z,98804.09
2023-03-11T01:42:45.779Z,98797.00
2023-03-11T01:43:40.679Z,98796.91
2023-03-11T01:44:42.636Z,98797.88
2023-03-11T01:45:31.010Z,98787.03
2023-03-11T01:46:31.265Z,98798.06
2023-03-11T01:47:13.011Z,98800.81
2023-03-11T01:47:55.114Z,98801.78
2023-03-11T01:48:38.816Z,98804.38
2023-03-11T01:49:22.100Z,98796.19
2023-03-11T01:50:06.875Z,98806.47
2023-03-11T01:50:50.704Z,98802.69
2023-03-11T01:51:42.834Z,98788.63
2023-03-11T01:52:26.404Z,98804.00
2023-03-11T01:53:09.425Z,98794.47
2023-03-11T01:53:53.541Z,98785.97
2023-03-11T01:54:38.547Z,98800.66
2023-03-11T01:55:20.513Z,98792.16
2023-03-11T01:56:04.639Z,98752.28
2023-03-11T01:56:48.772Z,98796.06
2023-03-11T01:57:31.100Z,98807.16
2023-03-11T01:58:20.913Z,98824.03
2023-03-11T01:59:03.287Z,98811.72
2023-03-11T01:59:50.829Z,98828.44
2023-03-11T02:00:32.947Z,98818.56
2023-03-11T02:01:14.862Z,98824.47
2023-03-11T02:02:14.518Z,98821.66
2023-03-11T02:03:00.387Z,98821.03
2023-03-11T02:03:43.252Z,98816.03
2023-03-11T02:04:25.233Z,98821.94
2023-03-11T02:05:09.587Z,98820.53
2023-03-11T02:05:54.165Z,98815.75
2023-03-11T02:06:36.144Z,98826.72
2023-03-11T02:07:18.252Z,98830.16
2023-03-11T02:08:01.825Z,98835.66
2023-03-11T02:08:48.135Z,98828.41
2023-03-11T02:09:30.609Z,98836.50
2023-03-11T02:10:13.693Z,98839.41
2023-03-11T02:10:57.136Z,98819.13
2023-03-11T02:11:39.142Z,98843.84
2023-03-11T02:12:21.366Z,98820.28
2023-03-11T02:13:04.278Z,98835.06
2023-03-11T02:13:46.869Z,98840.94
2023-03-11T02:14:30.366Z,98839.31
2023-03-11T02:15:13.274Z,98837.84
2023-03-11T02:15:55.119Z,98841.63
2023-03-11T02:16:36.888Z,98847.81
2023-03-11T02:17:18.746Z,98839.16
2023-03-11T02:18:05.201Z,98851.63
2023-03-11T02:18:47.472Z,98852.31
2023-03-11T02:19:59.228Z,98846.78
2023-03-11T02:21:04.838Z,98837.66
2023-03-11T02:21:46.917Z,98820.97
2023-03-11T02:22:33.299Z,98818.38
2023-03-11T02:23:21.315Z,98828.25
2023-03-11T02:24:19.632Z,98837.97
2023-03-11T02:25:04.088Z,98835.03
2023-03-11T02:25:51.528Z,98822.47
2023-03-11T02:26:43.095Z,98831.50
2023-03-11T02:27:27.705Z,98827.09
2023-03-11T02:28:12.792Z,98834.66
2023-03-11T02:28:56.266Z,98826.88
2023-03-11T02:29:39.167Z,98844.06
2023-03-11T02:30:23.722Z,98832.22
2023-03-11T02:31:05.724Z,98824.66
2023-03-11T02:31:49.563Z,98837.44
2023-03-11T02:32:33.927Z,98820.13
2023-03-11T02:33:17.658Z,98829.16
2023-03-11T02:34:04.446Z,98806.03
2023-03-11T02:34:46.399Z,98817.06
2023-03-11T02:35:29.959Z,98829.66
2023-03-11T02:36:41.195Z,98824.41
2023-03-11T02:37:25.716Z,98808.66
2023-03-11T02:38:14.103Z,98787.31
2023-03-11T02:38:56.716Z,98822.72
2023-03-11T02:39:42.007Z,98824.75
2023-03-11T02:40:55.716Z,98800.28
2023-03-11T02:41:42.251Z,98835.50
2023-03-11T02:42:27.770Z,98826.31
2023-03-11T02:43:14.002Z,98836.47
2023-03-11T02:43:56.394Z,98824.81
2023-03-11T02:44:42.610Z,98822.19
2023-03-11T02:45:26.459Z,98825.63
2023-03-11T02:46:10.726Z,98840.56
2023-03-11T02:46:53.494Z,98848.25
2023-03-11T02:47:38.744Z,98841.38
2023-03-11T02:48:23.933Z,98840.41
2023-03-11T02:49:06.453Z,98834.16
2023-03-11T02:49:48.990Z,98830.22
2023-03-11T02:50:31.718Z,98855.94
2023-03-11T02:51:13.503Z,98834.81
2023-03-11T02:51:55.639Z,98853.34
2023-03-11T02:52:37.491Z,98845.13
2023-03-11T02:53:19.304Z,98836.75
2023-03-11T02:54:05.156Z,98840.56
2023-03-11T02:54:48.134Z,98851.69
2023-03-11T02:55:30.184Z,98850.88
2023-03-11T02:56:11.881Z,98847.44
2023-03-11T02:56:53.611Z,98844.97
2023-03-11T02:57:35.675Z,98832.34
2023-03-11T02:58:19.908Z,98841.84
2023-03-11T02:59:01.737Z,98841.31
2023-03-11T02:59:44.845Z,98836.56
2023-03-11T03:00:28.009Z,98847.72
2023-03-11T03:01:15.667Z,98831.34
2023-03-11T03:01:59.707Z,98836.09
2023-03-11T03:02:43.112Z,98851.03
2023-03-11T03:03:25.409Z,98848.84
2023-03-11T03:04:07.188Z,98854.91
2023-03-11T03:04:49.054Z,98847.88
2023-03-11T03:05:31.336Z,98833.78
2023-03-11T03:06:15.689Z,98850.34
2023-03-11T03:06:57.417Z,98860.13
2023-03-11T03:07:39.638Z,98856.97
2023-03-11T03:08:21.447Z,98852.22
2023-03-11T03:09:03.536Z,98862.72
2023-03-11T03:09:45.353Z,98855.72
2023-03-11T03:10:27.224Z,98850.06
2023-03-11T03:11:09.078Z,98865.50
2023-03-11T03:11:50.823Z,98841.53
2023-03-11T03:12:32.559Z,98855.28
2023-03-11T03:13:14.386Z,98855.28
2023-03-11T03:13:56.147Z,98837.91
2023-03-11T03:14:38.441Z,98861.84
2023-03-11T03:15:20.346Z,98868.72
2023-03-11T03:16:02.731Z,98869.00
2023-03-11T03:16:44.661Z,98859.81
2023-03-11T03:17:26.615Z,98863.41
2023-03-11T03:18:08.399Z,98861.41
2023-03-11T03:18:50.197Z,98871.38
2023-03-11T03:19:32.165Z,98859.22
2023-03-11T03:20:14.796Z,98873.50
2023-03-11T03:21:01.768Z,98853.81
2023-03-11T03:21:43.600Z,98862.47
2023-03-11T03:22:27.513Z,98863.28
2023-03-11T03:23:09.438Z,98855.88
2023-03-11T03:23:51.491Z,98837.41
2023-03-11T03:24:33.215Z,98866.72
2023-03-11T03:25:15.125Z,98867.75
2023-03-11T03:25:56.845Z,98875.56
2023-03-11T03:26:38.852Z,98873.78
2023-03-11T03:27:22.053Z,98843.13
2023-03-11T03:28:04.228Z,98879.97
2023-03-11T03:28:48.840Z,98864.38
2023-03-11T03:29:30.924Z,98862.88
2023-03-11T03:30:12.969Z,98872.56
2023-03-11T03:30:55.425Z,98863.63
2023-03-11T03:31:38.435Z,98867.75
2023-03-11T03:32:20.249Z,98858.50
2023-03-11T03:33:02.169Z,98863.97
2023-03-11T03:33:45.322Z,98886.03
2023-03-11T03:34:27.182Z,98864.53
2023-03-11T03:35:09.310Z,98860.06
2023-03-11T03:36:13.696Z,98879.53
2023-03-11T03:36:58.524Z,98871.00
2023-03-11T03:37:40.262Z,98869.75
2023-03-11T03:38:22.074Z,98865.44
2023-03-11T03:39:06.098Z,98886.78
2023-03-11T03:39:51.132Z,98891.03
2023-03-11T03:40:33.649Z,98890.06
2023-03-11T03:41:18.059Z,98871.97
2023-03-11T03:42:00.176Z,98871.31
2023-03-11T03:42:43.591Z,98871.97
2023-03-11T03:43:25.547Z,98876.63
2023-03-11T03:44:07.359Z,98884.75
2023-03-11T03:44:50.290Z,98881.22
2023-03-11T03:45:32.152Z,98887.75
2023-03-11T03:46:14.413Z,98869.75
2023-03-11T03:47:00.511Z,98851.56
2023-03-11T03:47:42.490Z,98877.44
2023-03-11T03:48:24.344Z,98855.34
2023-03-11T03:49:06.120Z,98868.94
2023-03-11T03:49:48.773Z,98876.34
2023-03-11T03:50:30.457Z,98875.19
2023-03-11T03:51:14.217Z,98885.34
2023-03-11T03:52:02.477Z,98892.34
2023-03-11T03:52:46.729Z,98896.31
2023-03-11T03:53:28.419Z,98887.59
2023-03-11T03:54:10.398Z,98899.09
2023-03-11T03:54:52.141Z,98901.84
2023-03-11T03:55:33.925Z,98892.00
2023-03-11T03:56:18.148Z,98897.72
2023-03-11T03:57:00.042Z,98900.50
2023-03-11T03:57:41.795Z,98899.44
2023-03-11T03:58:26.108Z,98892.88
2023-03-11T03:59:07.850Z,98893.88
2023-03-11T03:59:54.641Z,98888.25
2023-03-11T04:00:36.667Z,98896.69
2023-03-11T04:01:18.456Z,98895.19
2023-03-11T04:02:00.390Z,98909.31
2023-03-11T04:02:44.589Z,98900.13
2023-03-11T04:03:35.907Z,98886.31
2023-03-11T04:04:23.031Z,98893.41
2023-03-11T04:05:05.961Z,98885.03
2023-03-11T04:05:47.811Z,98883.09
2023-03-11T04:06:29.773Z,98894.97
2023-03-11T04:07:18.472Z,98895.22
2023-03-11T04:08:00.616Z,98906.41
2023-03-11T04:08:42.843Z,98902.53
2023-03-11T04:09:26.104Z,98898.47
2023-03-11T04:10:08.122Z,98887.97
2023-03-11T04:10:57.626Z,98914.84
2023-03-11T04:11:39.698Z,98884.75
2023-03-11T04:12:22.386Z,98905.59
2023-03-11T04:13:04.228Z,98906.25
2023-03-11T04:13:46.798Z,98911.72
2023-03-11T04:14:28.842Z,98908.41
2023-03-11T04:15:13.951Z,98908.91
2023-03-11T04:15:58.389Z,98914.75
2023-03-11T04:16:40.482Z,98911.75
2023-03-11T04:17:26.232Z,98915.47
2023-03-11T04:18:09.681Z,98909.19
2023-03-11T04:18:51.660Z,98907.53
2023-03-11T04:19:34.605Z,98887.97
2023-03-11T04:20:16.545Z,98899.59
2023-03-11T04:21:05.952Z,98912.09
2023-03-11T04:21:47.714Z,98909.91
2023-03-11T04:22:30.089Z,98899.66
2023-03-11T04:23:12.961Z,98909.22
2023-03-11T04:23:54.755Z,98899.66
2023-03-11T04:24:42.143Z,98906.53
2023-03-11T04:25:23.979Z,98902.41
2023-03-11T04:26:06.045Z,98906.81
2023-03-11T04:26:49.614Z,98910.78
2023-03-11T04:27:32.856Z,98898.63
2023-03-11T04:28:16.092Z,98893.41
2023-03-11T04:28:59.065Z,98917.22
2023-03-11T04:29:43.494Z,98904.19
2023-03-11T04:30:25.273Z,98888.47
2023-03-11T04:31:11.798Z,98915.56
2023-03-11T04:31:53.778Z,98896.91
2023-03-11T04:32:35.577Z,98909.41
2023-03-11T04:33:19.252Z,98915.25
2023-03-11T04:34:01.451Z,98907.44
2023-03-11T04:34:44.614Z,98898.69
2023-03-11T04:35:32.675Z,98915.44
2023-03-11T04:36:15.072Z,98879.66
2023-03-11T04:36:57.212Z,98841.00
2023-03-11T04:37:43.743Z,98905.75
2023-03-11T04:38:25.638Z,98897.84
2023-03-11T04:39:07.491Z,98904.38
2023-03-11T04:39:54.497Z,98911.84
2023-03-11T04:40:39.562Z,98914.53
2023-03-11T04:41:21.443Z,98907.72
2023-03-11T04:42:04.219Z,98918.41
2023-03-11T04:42:47.267Z,98918.53
2023-03-11T04:43:29.230Z,98908.16
2023-03-11T04:44:11.092Z,98918.84
2023-03-11T04:44:53.559Z,98913.50
2023-03-11T04:45:39.202Z,98907.88
2023-03-11T04:46:21.605Z,98917.06
2023-03-11T04:47:03.834Z,98901.44
2023-03-11T04:47:50.696Z,98918.72
2023-03-11T04:48:32.842Z,98915.28
2023-03-11T04:49:14.610Z,98899.50
2023-03-11T04:49:56.472Z,98912.41
2023-03-11T04:50:39.149Z,98908.28
2023-03-11T04:51:20.843Z,98909.53
2023-03-11T04:52:02.668Z,98913.38
2023-03-11T04:52:45.429Z,98910.06
2023-03-11T04:53:27.508Z,98917.47
2023-03-11T04:54:09.690Z,98917.75
2023-03-11T04:54:51.556Z,98924.63
2023-03-11T04:55:33.343Z,98909.69
2023-03-11T04:56:15.275Z,98920.38
2023-03-11T04:56:57.215Z,98914.63
2023-03-11T04:57:41.019Z,98915.47
2023-03-11T04:58:23.711Z,98915.97
2023-03-11T04:59:05.567Z,98915.69
2023-03-11T04:59:49.369Z,98884.50
2023-03-11T05:00:31.700Z,98928.31
2023-03-11T05:01:19.677Z,98908.97
2023-03-11T05:02:01.587Z,98927.34
2023-03-11T05:02:43.659Z,98900.38
2023-03-11T05:03:26.590Z,98923.53
2023-03-11T05:04:08.531Z,98925.16
2023-03-11T05:04:50.678Z,98926.81
2023-03-11T05:05:32.479Z,98930.09
2023-03-11T05:06:14.235Z,98940.34
2023-03-11T05:06:56.097Z,98934.84
2023-03-11T05:07:39.686Z,98940.72
2023-03-11T05:08:26.241Z,98942.22
2023-03-11T05:09:08.110Z,98943.88
2023-03-11T05:09:52.904Z,98939.47
2023-03-11T05:10:34.738Z,98941.41
2023-03-11T05:11:19.460Z,98929.09
2023-03-11T05:12:04.344Z,98943.88
2023-03-11T05:12:47.275Z,98930.88
2023-03-11T05:13:29.371Z,98926.50
2023-03-11T05:14:11.150Z,98926.22
2023-03-11T05:14:52.933Z,98923.75
2023-03-11T05:15:35.361Z,98932.47
2023-03-11T05:16:17.814Z,98927.84
2023-03-11T05:16:59.630Z,98941.38
2023-03-11T05:17:41.491Z,98948.09
2023-03-11T05:18:23.266Z,98945.63
2023-03-11T05:19:26.132Z,98942.50
2023-03-11T05:20:08.561Z,98932.63
2023-03-11T05:20:50.352Z,98954.72
2023-03-11T05:21:34.332Z,98946.50
2023-03-11T05:22:16.068Z,98944.41
2023-03-11T05:22:58.377Z,98965.97
2023-03-11T05:23:40.760Z,98950.75
2023-03-11T05:24:23.091Z,98958.97
2023-03-11T05:25:06.317Z,98950.47
2023-03-11T05:25:48.627Z,98939.41
2023-03-11T05:26:30.703Z,98956.66
2023-03-11T05:27:13.499Z,98944.75
2023-03-11T05:27:55.419Z,98951.75
2023-03-11T05:28:37.225Z,98965.75
2023-03-11T05:29:20.497Z,98965.34
2023-03-11T05:30:03.773Z,98928.91
2023-03-11T05:30:48.394Z,98959.06
2023-03-11T05:31:30.563Z,98954.00
2023-03-11T05:32:13.908Z,98955.91
2023-03-11T05:32:56.993Z,98937.84
2023-03-11T05:33:39.854Z,98942.22
2023-03-11T05:34:25.046Z,98942.91
2023-03-11T05:35:07.790Z,98944.69
2023-03-11T05:35:51.956Z,98955.41
2023-03-11T05:36:34.726Z,98943.34
2023-03-11T05:37:16.608Z,98948.13
2023-03-11T05:37:59.700Z,98933.47
2023-03-11T05:38:44.523Z,98952.53
2023-03-11T05:39:26.736Z,98952.81
2023-03-11T05:40:12.124Z,98940.88
2023-03-11T05:40:53.963Z,98941.44
2023-03-11T05:41:35.868Z,98951.97
2023-03-11T05:42:18.738Z,98936.78
2023-03-11T05:43:03.706Z,98935.69
2023-03-11T05:43:49.195Z,98949.94
2023-03-11T05:44:31.515Z,98942.97
2023-03-11T05:45:13.387Z,98956.13
2023-03-11T05:45:56.562Z,98950.25
2023-03-11T05:46:38.373Z,98956.94
2023-03-11T05:47:21.643Z,98926.81
2023-03-11T05:48:05.254Z,98962.56
2023-03-11T05:48:47.720Z,98963.53
2023-03-11T05:49:29.527Z,98943.81
2023-03-11T05:50:12.496Z,98940.69
2023-03-11T05:50:55.501Z,98945.19
2023-03-11T05:51:38.129Z,98951.94
2023-03-11T05:52:19.963Z,98945.34
2023-03-11T05:53:02.469Z,98956.97
2023-03-11T05:53:48.573Z,98964.97
2023-03-11T05:54:35.417Z,98946.00
2023-03-11T05:55:17.289Z,98960.00
2023-03-11T05:56:01.077Z,98970.16
2023-03-11T05:56:45.406Z,98960.84
2023-03-11T05:57:28.706Z,98946.19
2023-03-11T05:58:11.664Z,98964.28
2023-03-11T05:58:53.608Z,98959.47
2023-03-11T05:59:35.960Z,98960.84
2023-03-11T06:00:20.535Z,98967.56
2023-03-11T06:01:10.884Z,98965.63
2023-03-11T06:01:52.749Z,98953.97
2023-03-11T06:02:34.634Z,98965.47
2023-03-11T06:03:16.392Z,98962.59
2023-03-11T06:03:58.317Z,98963.16
2023-03-11T06:04:40.351Z,98946.00
2023-03-11T06:05:23.379Z,98953.66
2023-03-11T06:06:09.485Z,98958.56
2023-03-11T06:06:51.506Z,98958.00
2023-03-11T06:07:36.532Z,98962.91
2023-03-11T06:08:20.458Z,98962.38
2023-03-11T06:09:04.155Z,98954.69
2023-03-11T06:09:46.104Z,98957.00
2023-03-11T06:10:32.167Z,98960.53
2023-03-11T06:11:14.258Z,98968.09
2023-03-11T06:11:56.629Z,98947.78
2023-03-11T06:12:42.286Z,98961.31
2023-03-11T06:13:32.496Z,98973.22
2023-03-11T06:14:15.692Z,98953.44
2023-03-11T06:14:59.818Z,98954.53
2023-03-11T06:15:41.568Z,98966.56
2023-03-11T06:16:25.259Z,98971.34
2023-03-11T06:17:08.566Z,98961.34
2023-03-11T06:17:50.355Z,98968.75
2023-03-11T06:18:32.700Z,98978.72
2023-03-11T06:19:14.532Z,98970.91
2023-03-11T06:20:00.707Z,98977.75
2023-03-11T06:20:42.482Z,98960.22
2023-03-11T06:21:26.578Z,98959.41
2023-03-11T06:22:08.552Z,98965.69
2023-03-11T06:22:50.700Z,98967.03
2023-03-11T06:23:33.192Z,98950.91
2023-03-11T06:24:15.925Z,98951.56
2023-03-11T06:24:58.294Z,98975.00
2023-03-11T06:25:40.651Z,98961.19
2023-03-11T06:26:23.771Z,98969.84
2023-03-11T06:27:06.520Z,98971.38
2023-03-11T06:27:53.323Z,98963.59
2023-03-11T06:28:36.183Z,98976.22
2023-03-11T06:29:18.196Z,98978.84
2023-03-11T06:30:01.161Z,98955.91
2023-03-11T06:30:45.263Z,98962.78
2023-03-11T06:31:30.573Z,98968.81
2023-03-11T06:32:18.802Z,98961.19
2023-03-11T06:33:00.610Z,98969.16
2023-03-11T06:33:42.822Z,98979.59
2023-03-11T06:34:24.687Z,98984.44
2023-03-11T06:35:07.472Z,98968.28
2023-03-11T06:36:08.058Z,98979.53
2023-03-11T06:36:49.920Z,98981.59
2023-03-11T06:37:31.674Z,98978.28
2023-03-11T06:38:13.494Z,98971.06
2023-03-11T06:38:55.385Z,98975.97
2023-03-11T06:39:39.303Z,98951.97
2023-03-11T06:40:21.014Z,98974.59
2023-03-11T06:41:04.958Z,98998.56
2023-03-11T06:41:48.117Z,98996.66
2023-03-11T06:42:29.819Z,98996.66
2023-03-11T06:43:13.337Z,98980.50
2023-03-11T06:43:59.717Z,99001.88
2023-03-11T06:44:42.899Z,98995.16
2023-03-11T06:45:24.697Z,99013.22
2023-03-11T06:46:21.610Z,99008.38
2023-03-11T06:47:04.670Z,98999.75
2023-03-11T06:47:46.447Z,99004.16
2023-03-11T06:48:28.413Z,98996.16
2023-03-11T06:49:10.527Z,99000.53
2023-03-11T06:49:54.361Z,99014.91
2023-03-11T06:50:36.154Z,98997.88
2023-03-11T06:51:19.874Z,99027.47
2023-03-11T06:52:01.893Z,99011.66
2023-03-11T06:52:43.765Z,99012.19
2023-03-11T06:53:27.549Z,99020.44
2023-03-11T06:54:10.399Z,98993.97
2023-03-11T06:54:52.161Z,99016.16
2023-03-11T06:55:34.752Z,99014.81
2023-03-11T06:56:17.382Z,99009.59
2023-03-11T06:57:07.768Z,99032.06
2023-03-11T06:57:49.649Z,99029.44
2023-03-11T06:58:32.795Z,99029.59
2023-03-11T06:59:15.917Z,99023.31
2023-03-11T06:59:57.745Z,99045.28
2023-03-11T07:00:42.391Z,99042.78
2023-03-11T07:01:26.120Z,99040.03
2023-03-11T07:02:13.313Z,99034.44
2023-03-11T07:02:55.806Z,99025.41
2023-03-11T07:03:39.455Z,99040.34
2023-03-11T07:04:21.695Z,99044.06
2023-03-11T07:05:04.086Z,99028.88
2023-03-11T07:05:49.865Z,99018.78
2023-03-11T07:06:31.626Z,99043.72
2023-03-11T07:07:21.474Z,99031.41
2023-03-11T07:08:03.493Z,99048.66
2023-03-11T07:08:50.915Z,99053.97
2023-03-11T07:09:33.414Z,99007.78
2023-03-11T07:10:15.280Z,99033.81
2023-03-11T07:11:14.670Z,99060.66
2023-03-11T07:11:56.941Z,99048.34
2023-03-11T07:12:44.245Z,99051.59
2023-03-11T07:13:26.000Z,99059.06
2023-03-11T07:14:08.508Z,99058.81
2023-03-11T07:14:57.236Z,99045.94
2023-03-11T07:15:39.375Z,99059.13
2023-03-11T07:16:27.789Z,99067.31
2023-03-11T07:17:15.518Z,99043.91
2023-03-11T07:18:02.352Z,99056.25
2023-03-11T07:18:46.147Z,99061.31
2023-03-11T07:19:28.138Z,99050.63
2023-03-11T07:20:10.731Z,99046.94
2023-03-11T07:20:52.506Z,99066.69
2023-03-11T07:21:34.487Z,99072.44
2023-03-11T07:22:16.687Z,99073.41
2023-03-11T07:22:58.581Z,99054.72
2023-03-11T07:23:40.682Z,99038.28
2023-03-11T07:24:22.447Z,99069.94
2023-03-11T07:25:04.760Z,99073.75
2023-03-11T07:25:47.859Z,99057.97
2023-03-11T07:26:31.553Z,99078.53
2023-03-11T07:27:13.464Z,99075.78
2023-03-11T07:27:55.158Z,99059.59
2023-03-11T07:28:37.274Z,99070.41
2023-03-11T07:29:20.289Z,99087.19
2023-03-11T07:30:03.087Z,99077.97
2023-03-11T07:30:46.503Z,99072.94
2023-03-11T07:31:31.002Z,99081.91
2023-03-11T07:32:12.914Z,99065.13
2023-03-11T07:32:54.837Z,99090.06
2023-03-11T07:33:36.828Z,99076.03
2023-03-11T07:34:18.953Z,99078.94
2023-03-11T07:35:00.772Z,99091.66
2023-03-11T07:35:42.751Z,99066.19
2023-03-11T07:36:25.714Z,99078.59
2023-03-11T07:37:07.626Z,99096.38
2023-03-11T07:37:49.358Z,99096.91
2023-03-11T07:38:31.159Z,99084.28
2023-03-11T07:39:15.543Z,99099.59
2023-03-11T07:39:57.271Z,99103.03
2023-03-11T07:40:38.966Z,99101.63
2023-03-11T07:41:20.941Z,99100.81
2023-03-11T07:42:04.896Z,99096.16
2023-03-11T07:42:51.048Z,99110.75
2023-03-11T07:43:35.714Z,99105.28
2023-03-11T07:44:18.557Z,99101.91
2023-03-11T07:45:00.279Z,99110.44
2023-03-11T07:45:42.038Z,99106.91
2023-03-11T07:46:25.491Z,99102.44
2023-03-11T07:47:07.316Z,99102.72
2023-03-11T07:47:50.857Z,99110.19
2023-03-11T07:48:33.288Z,99115.81
2023-03-11T07:49:15.225Z,99106.75
2023-03-11T07:49:57.381Z,99123.78
2023-03-11T07:50:39.324Z,99111.97
2023-03-11T07:51:26.817Z,99119.78
2023-03-11T07:52:08.806Z,99117.31
2023-03-11T07:52:50.637Z,99121.84
2023-03-11T07:53:32.867Z,99111.53
2023-03-11T07:54:14.895Z,99119.66
2023-03-11T07:54:56.676Z,99102.34
2023-03-11T07:55:38.585Z,99105.06
2023-03-11T07:56:22.676Z,99109.81
2023-03-11T07:57:04.625Z,99112.00
2023-03-11T07:57:49.400Z,99116.03
2023-03-11T07:58:31.283Z,99133.69
2023-03-11T07:59:13.226Z,99136.34
2023-03-11T07:59:54.973Z,99105.19
2023-03-11T08:00:36.761Z,99144.25
2023-03-11T08:01:24.008Z,99129.03
2023-03-11T08:02:05.832Z,99107.66
2023-03-11T08:02:47.695Z,99116.22
2023-03-11T08:03:29.525Z,99134.84
2023-03-11T08:04:14.294Z,99119.38
2023-03-11T08:04:57.182Z,99143.13
2023-03-11T08:05:38.972Z,99124.13
2023-03-11T08:06:26.125Z,99144.53
2023-03-11T08:07:08.099Z,99142.63
2023-03-11T08:07:49.998Z,99133.88
2023-03-11T08:08:31.680Z,99155.28
2023-03-11T08:09:13.932Z,99161.09
2023-03-11T08:09:55.985Z,99141.34
2023-03-11T08:10:38.781Z,99148.22
2023-03-11T08:11:21.443Z,99141.72
2023-03-11T08:12:03.431Z,99148.69
2023-03-11T08:12:45.260Z,99157.44
2023-03-11T08:13:27.044Z,99173.00
2023-03-11T08:14:09.123Z,99159.53
2023-03-11T08:14:50.903Z,99155.94
2023-03-11T08:15:32.992Z,99159.75
2023-03-11T08:16:17.748Z,99177.97
2023-03-11T08:16:59.626Z,99179.41
2023-03-11T08:17:41.449Z,99168.44
2023-03-11T08:18:23.201Z,99182.91
2023-03-11T08:19:04.997Z,99172.22
2023-03-11T08:19:49.585Z,99158.13
2023-03-11T08:20:31.459Z,99181.56
2023-03-11T08:21:17.135Z,99166.28
2023-03-11T08:22:02.126Z,99181.22
2023-03-11T08:22:57.333Z,99179.91
2023-03-11T08:23:40.690Z,99177.75
2023-03-11T08:24:22.696Z,99186.63
2023-03-11T08:25:04.850Z,99188.28
2023-03-11T08:25:47.188Z,99188.31
2023-03-11T08:26:30.043Z,99183.88
2023-03-11T08:27:12.548Z,99191.44
2023-03-11T08:27:54.521Z,99186.19
2023-03-11T08:28:36.779Z,99174.41
2023-03-11T08:29:18.560Z,99173.41
2023-03-11T08:30:00.316Z,99190.16
2023-03-11T08:30:42.607Z,99192.28
2023-03-11T08:31:27.861Z,99193.78